createdAt,value
2023-04-27T00:00:09.931Z,71.09
2023-04-27T00:01:09.930Z,71.28
2023-04-27T00:02:10.021Z,71.19
2023-04-27T00:03:10.248Z,71.47
2023-04-27T00:04:10.209Z,71.47
2023-04-27T00:05:10.055Z,71.47
2023-04-27T00:06:10.074Z,71.67
2023-04-27T00:07:09.967Z,71.57
2023-04-27T00:08:09.969Z,71.47
2023-04-27T00:09:09.978Z,71.67
2023-04-27T00:10:09.982Z,71.86
2023-04-27T00:11:09.988Z,72.05
2023-04-27T00:12:09.985Z,71.95
2023-04-27T00:13:09.986Z,71.86
2023-04-27T00:14:10.001Z,71.95
2023-04-27T00:15:10.030Z,71.86
2023-04-27T00:16:10.050Z,72.05
2023-04-27T00:17:10.016Z,72.33
2023-04-27T00:18:10.062Z,72.33
2023-04-27T00:19:10.023Z,72.05
2023-04-27T00:20:10.080Z,72.71
2023-04-27T00:21:10.034Z,72.62
2023-04-27T00:22:10.044Z,72.81
2023-04-27T00:23:10.037Z,72.81
2023-04-27T00:24:10.084Z,72.62
2023-04-27T00:25:10.052Z,72.42
2023-04-27T00:26:10.046Z,72.90
2023-04-27T00:27:10.062Z,73.00
2023-04-27T00:28:10.056Z,72.52
2023-04-27T00:29:10.074Z,72.62
2023-04-27T00:30:10.066Z,72.52
2023-04-27T00:31:10.077Z,72.71
2023-04-27T00:32:10.143Z,72.71
2023-04-27T00:33:10.096Z,73.10
2023-04-27T00:34:10.083Z,73.00
2023-04-27T00:35:10.093Z,73.00
2023-04-27T00:36:10.143Z,73.10
2023-04-27T00:37:10.142Z,73.00
2023-04-27T00:38:10.108Z,73.00
2023-04-27T00:39:10.104Z,73.34
2023-04-27T00:40:10.143Z,73.28
2023-04-27T00:41:10.114Z,73.34
2023-04-27T00:42:10.124Z,73.47
2023-04-27T00:43:10.136Z,73.57
2023-04-27T00:44:10.128Z,73.28
2023-04-27T00:45:12.963Z,73.66
2023-04-27T00:46:10.205Z,73.34
2023-04-27T00:47:10.142Z,73.91
2023-04-27T00:48:10.160Z,73.95
2023-04-27T00:49:10.154Z,73.85
2023-04-27T00:50:10.161Z,73.63
2023-04-27T00:51:10.171Z,73.76
2023-04-27T00:52:10.200Z,73.76
2023-04-27T00:53:10.178Z,73.66
2023-04-27T00:54:10.177Z,73.66
2023-04-27T00:55:10.181Z,73.95
2023-04-27T00:56:10.181Z,73.85
2023-04-27T00:57:10.206Z,73.25
2023-04-27T00:58:10.199Z,73.76
2023-04-27T00:59:10.210Z,73.82
2023-04-27T01:00:10.219Z,74.01
2023-04-27T01:01:10.235Z,74.04
2023-04-27T01:02:10.224Z,73.91
2023-04-27T01:03:10.504Z,74.20
2023-04-27T01:04:10.573Z,73.44
2023-04-27T01:05:10.232Z,73.44
2023-04-27T01:06:10.233Z,74.01
2023-04-27T01:07:10.237Z,73.53
2023-04-27T01:08:10.260Z,74.10
2023-04-27T01:09:10.245Z,74.20
2023-04-27T01:10:10.238Z,73.44
2023-04-27T01:11:10.257Z,73.34
2023-04-27T01:12:10.256Z,73.53
2023-04-27T01:13:10.263Z,73.91
2023-04-27T01:14:10.265Z,73.44
2023-04-27T01:15:10.266Z,73.53
2023-04-27T01:16:10.275Z,73.44
2023-04-27T01:17:10.303Z,74.01
2023-04-27T01:18:10.308Z,73.91
2023-04-27T01:19:10.293Z,73.82
2023-04-27T01:20:10.299Z,73.53
2023-04-27T01:21:10.290Z,73.34
2023-04-27T01:22:10.333Z,73.15
2023-04-27T01:23:10.307Z,73.91
2023-04-27T01:24:10.331Z,73.63
2023-04-27T01:25:10.308Z,73.91
2023-04-27T01:26:10.312Z,73.91
2023-04-27T01:27:10.322Z,74.01
2023-04-27T01:28:10.327Z,73.91
2023-04-27T01:29:10.323Z,73.72
2023-04-27T01:30:10.338Z,73.72
2023-04-27T01:31:10.364Z,73.72
2023-04-27T01:32:10.339Z,73.91
2023-04-27T01:33:10.368Z,73.91
2023-04-27T01:34:10.346Z,73.72
2023-04-27T01:35:10.393Z,73.72
2023-04-27T01:36:10.362Z,73.91
2023-04-27T01:37:10.360Z,74.01
2023-04-27T01:38:10.370Z,73.53
2023-04-27T01:39:10.376Z,73.63
2023-04-27T01:40:10.410Z,73.34
2023-04-27T01:41:10.384Z,73.15
2023-04-27T01:42:10.384Z,73.34
2023-04-27T01:43:10.398Z,72.96
2023-04-27T01:44:10.393Z,73.63
2023-04-27T01:45:10.424Z,73.63
2023-04-27T01:46:10.421Z,73.72
2023-04-27T01:47:10.409Z,73.06
2023-04-27T01:48:10.471Z,73.25
2023-04-27T01:49:10.419Z,73.34
2023-04-27T01:50:10.432Z,73.34
2023-04-27T01:51:10.425Z,73.44
2023-04-27T01:52:10.456Z,73.44
2023-04-27T01:53:10.441Z,73.06
2023-04-27T01:54:10.443Z,73.44
2023-04-27T01:55:10.451Z,73.25
2023-04-27T01:56:10.472Z,73.25
2023-04-27T01:57:10.449Z,73.34
2023-04-27T01:58:10.454Z,73.63
2023-04-27T01:59:10.467Z,73.34
2023-04-27T02:00:10.475Z,73.53
2023-04-27T02:01:10.473Z,73.34
2023-04-27T02:02:10.528Z,73.44
2023-04-27T02:03:10.571Z,73.34
2023-04-27T02:04:10.695Z,73.44
2023-04-27T02:05:10.496Z,73.34
2023-04-27T02:06:10.501Z,73.15
2023-04-27T02:07:10.509Z,73.06
2023-04-27T02:08:10.507Z,73.53
2023-04-27T02:09:10.499Z,73.63
2023-04-27T02:10:10.509Z,73.82
2023-04-27T02:11:10.518Z,73.82
2023-04-27T02:12:10.658Z,73.91
2023-04-27T02:13:10.523Z,73.53
2023-04-27T02:14:10.528Z,73.34
2023-04-27T02:15:10.535Z,73.63
2023-04-27T02:16:10.569Z,73.63
2023-04-27T02:17:10.545Z,73.63
2023-04-27T02:18:10.584Z,73.63
2023-04-27T02:19:10.540Z,73.15
2023-04-27T02:20:10.549Z,73.34
2023-04-27T02:21:10.550Z,73.53
2023-04-27T02:22:10.556Z,73.15
2023-04-27T02:23:10.565Z,73.25
2023-04-27T02:24:10.566Z,73.15
2023-04-27T02:25:10.576Z,73.15
2023-04-27T02:26:10.574Z,73.63
2023-04-27T02:27:10.606Z,73.15
2023-04-27T02:28:10.616Z,73.34
2023-04-27T02:29:10.706Z,73.53
2023-04-27T02:30:10.597Z,73.63
2023-04-27T02:31:10.615Z,73.72
2023-04-27T02:32:10.636Z,73.82
2023-04-27T02:33:10.649Z,73.72
2023-04-27T02:34:10.603Z,73.72
2023-04-27T02:35:10.608Z,73.82
2023-04-27T02:36:10.616Z,74.10
2023-04-27T02:37:10.627Z,73.34
2023-04-27T02:38:10.628Z,73.25
2023-04-27T02:39:10.634Z,73.44
2023-04-27T02:40:10.653Z,73.82
2023-04-27T02:41:10.633Z,74.01
2023-04-27T02:42:10.652Z,73.91
2023-04-27T02:43:10.673Z,73.63
2023-04-27T02:44:10.676Z,73.82
2023-04-27T02:45:10.653Z,73.72
2023-04-27T02:46:10.703Z,73.72
2023-04-27T02:47:10.658Z,73.53
2023-04-27T02:48:10.759Z,73.91
2023-04-27T02:49:10.710Z,74.20
2023-04-27T02:50:10.675Z,74.29
2023-04-27T02:51:10.688Z,74.01
2023-04-27T02:52:10.678Z,74.10
2023-04-27T02:53:10.679Z,74.01
2023-04-27T02:54:10.687Z,74.39
2023-04-27T02:55:10.740Z,74.20
2023-04-27T02:56:10.696Z,74.39
2023-04-27T02:57:10.697Z,74.48
2023-04-27T02:58:10.706Z,74.39
2023-04-27T02:59:10.719Z,74.20
2023-04-27T03:00:10.740Z,74.01
2023-04-27T03:01:10.726Z,74.10
2023-04-27T03:02:10.722Z,74.48
2023-04-27T03:03:10.880Z,74.77
2023-04-27T03:04:10.901Z,74.67
2023-04-27T03:05:10.738Z,74.87
2023-04-27T03:06:10.741Z,74.58
2023-04-27T03:07:10.746Z,74.58
2023-04-27T03:08:10.751Z,74.77
2023-04-27T03:09:10.770Z,74.67
2023-04-27T03:10:10.761Z,74.67
2023-04-27T03:11:10.756Z,74.96
2023-04-27T03:12:10.761Z,75.15
2023-04-27T03:13:10.763Z,75.05
2023-04-27T03:14:10.786Z,74.87
2023-04-27T03:15:10.774Z,74.96
2023-04-27T03:16:10.863Z,74.77
2023-04-27T03:17:10.785Z,75.21
2023-04-27T03:18:10.791Z,75.15
2023-04-27T03:19:10.811Z,75.24
2023-04-27T03:20:10.794Z,75.05
2023-04-27T03:21:10.805Z,75.34
2023-04-27T03:22:10.811Z,75.24
2023-04-27T03:23:10.812Z,75.15
2023-04-27T03:24:10.823Z,75.24
2023-04-27T03:25:10.824Z,75.43
2023-04-27T03:26:10.828Z,75.34
2023-04-27T03:27:10.838Z,75.53
2023-04-27T03:28:10.834Z,75.53
2023-04-27T03:29:10.831Z,75.53
2023-04-27T03:30:10.837Z,75.49
2023-04-27T03:31:10.873Z,75.53
2023-04-27T03:32:10.927Z,75.72
2023-04-27T03:33:10.887Z,75.62
2023-04-27T03:34:10.849Z,75.81
2023-04-27T03:35:10.856Z,75.91
2023-04-27T03:36:10.857Z,75.62
2023-04-27T03:37:10.875Z,75.62
2023-04-27T03:38:10.863Z,75.59
2023-04-27T03:39:10.972Z,75.72
2023-04-27T03:40:10.872Z,75.62
2023-04-27T03:41:10.877Z,75.81
2023-04-27T03:42:10.884Z,75.72
2023-04-27T03:43:10.890Z,75.53
2023-04-27T03:44:10.887Z,75.62
2023-04-27T03:45:10.900Z,75.72
2023-04-27T03:46:10.930Z,75.62
2023-04-27T03:47:10.909Z,75.81
2023-04-27T03:48:10.928Z,76.01
2023-04-27T03:59:20.070Z,75.81
2023-04-27T04:00:20.073Z,75.81
2023-04-27T04:01:20.072Z,75.72
2023-04-27T04:02:20.208Z,75.62
2023-04-27T04:03:20.407Z,75.62
2023-04-27T04:04:20.343Z,75.43
2023-04-27T04:05:20.170Z,75.62
2023-04-27T04:06:20.107Z,75.81
2023-04-27T04:07:20.092Z,75.81
2023-04-27T04:08:20.095Z,75.81
2023-04-27T04:09:21.400Z,75.72
2023-04-27T04:10:20.112Z,75.72
2023-04-27T04:11:20.109Z,75.81
2023-04-27T04:12:20.115Z,75.72
2023-04-27T04:13:20.119Z,75.53
2023-04-27T04:14:20.143Z,75.72
2023-04-27T04:15:20.121Z,75.81
2023-04-27T04:16:20.196Z,75.72
2023-04-27T04:17:20.126Z,75.24
2023-04-27T04:19:22.741Z,76.01
2023-04-27T04:20:22.719Z,76.01
2023-04-27T04:21:22.720Z,76.01
2023-04-27T04:22:22.726Z,75.91
2023-04-27T04:23:22.733Z,75.72
2023-04-27T04:24:22.744Z,75.72
2023-04-27T04:25:22.735Z,75.81
2023-04-27T04:26:22.737Z,76.39
2023-04-27T04:27:22.740Z,76.48
2023-04-27T04:28:22.748Z,76.20
2023-04-27T04:29:22.762Z,76.20
2023-04-27T04:30:22.762Z,76.29
2023-04-27T04:31:22.791Z,76.29
2023-04-27T04:32:22.823Z,76.29
2023-04-27T04:33:22.784Z,75.72
2023-04-27T04:34:22.770Z,75.72
2023-04-27T04:35:22.885Z,76.01
2023-04-27T04:36:22.789Z,76.01
2023-04-27T04:37:22.782Z,75.72
2023-04-27T04:38:22.792Z,75.62
2023-04-27T04:39:22.795Z,76.01
2023-04-27T04:40:22.804Z,76.10
2023-04-27T04:41:22.806Z,76.01
2023-04-27T04:42:22.820Z,76.20
2023-04-27T04:43:22.841Z,76.20
2023-04-27T04:44:22.813Z,76.20
2023-04-27T04:45:22.815Z,76.20
2023-04-27T04:48:48.676Z,76.01
2023-04-27T04:49:48.671Z,76.29
2023-04-27T04:50:48.708Z,76.48
2023-04-27T04:51:48.690Z,76.39
2023-04-27T04:52:48.700Z,76.39
2023-04-27T04:53:48.685Z,76.39
2023-04-27T04:54:48.699Z,76.29
2023-04-27T04:55:48.697Z,76.39
2023-04-27T04:56:48.715Z,76.48
2023-04-27T04:57:48.707Z,76.20
2023-04-27T04:58:48.704Z,76.20
2023-04-27T04:59:48.725Z,76.39
2023-04-27T05:00:48.711Z,76.20
2023-04-27T05:01:48.767Z,76.29
2023-04-27T05:02:48.926Z,76.29
2023-04-27T05:03:48.872Z,76.39
2023-04-27T05:04:48.856Z,76.39
2023-04-27T05:05:48.750Z,76.57
2023-04-27T05:06:48.760Z,76.48
2023-04-27T05:07:48.755Z,76.48
2023-04-27T05:08:48.760Z,76.39
2023-04-27T05:09:48.765Z,76.48
2023-04-27T05:14:57.906Z,76.86
2023-04-27T05:15:57.923Z,76.96
2023-04-27T05:16:57.935Z,76.96
2023-04-27T05:17:57.941Z,77.15
2023-04-27T05:18:57.920Z,77.05
2023-04-27T05:19:57.927Z,77.24
2023-04-27T05:20:57.942Z,77.24
2023-04-27T05:21:57.975Z,76.86
2023-04-27T05:22:57.964Z,77.15
2023-04-27T05:23:57.943Z,76.67
2023-04-27T05:24:57.960Z,76.48
2023-04-27T05:25:57.955Z,76.67
2023-04-27T05:29:23.801Z,76.76
2023-04-27T05:30:23.816Z,76.57
2023-04-27T05:31:23.888Z,76.86
2023-04-27T05:32:23.958Z,76.96
2023-04-27T05:33:23.833Z,76.48
2023-04-27T05:34:23.965Z,76.57
2023-04-27T05:35:23.834Z,76.48
2023-04-27T05:36:23.836Z,76.39
2023-04-27T05:37:23.857Z,76.48
2023-04-27T05:40:55.554Z,76.52
2023-04-27T05:41:54.719Z,76.42
2023-04-27T05:42:54.699Z,76.04
2023-04-27T05:43:54.711Z,76.04
2023-04-27T05:46:27.441Z,75.85
2023-04-27T05:47:27.376Z,75.67
2023-04-27T05:48:27.365Z,75.95
2023-04-27T05:49:27.361Z,75.57
2023-04-27T05:50:27.374Z,75.85
2023-04-27T05:51:27.372Z,75.57
2023-04-27T05:52:27.395Z,75.67
2023-04-27T05:53:27.385Z,75.47
2023-04-27T05:54:27.393Z,75.57
2023-04-27T05:55:27.395Z,75.57
2023-04-27T05:57:19.957Z,75.57
2023-04-27T05:58:19.964Z,75.28
2023-04-27T05:59:19.962Z,74.71
2023-04-27T06:00:19.964Z,74.90
2023-04-27T06:01:19.973Z,75.09
2023-04-27T06:02:20.088Z,74.43
2023-04-27T06:03:20.170Z,75.19
2023-04-27T06:04:20.087Z,75.19
2023-04-27T06:05:20.042Z,74.43
2023-04-27T06:06:20.003Z,74.24
2023-04-27T06:07:20.034Z,74.14
2023-04-27T06:08:20.026Z,74.43
2023-04-27T06:09:20.006Z,74.33
2023-04-27T06:10:20.009Z,74.04
2023-04-27T06:11:20.012Z,74.18
2023-04-27T06:12:20.032Z,74.65
2023-04-27T06:13:20.033Z,74.37
2023-04-27T06:15:12.598Z,73.41
2023-04-27T06:16:12.609Z,73.41
2023-04-27T06:17:12.605Z,73.70
2023-04-27T06:29:15.092Z,72.75
2023-04-27T06:30:14.974Z,72.46
2023-04-27T06:31:15.057Z,72.85
2023-04-27T06:32:14.987Z,72.65
2023-04-27T06:33:14.986Z,72.46
2023-04-27T06:34:14.994Z,72.56
2023-04-27T06:35:14.998Z,72.85
2023-04-27T06:36:14.995Z,72.46
2023-04-27T06:37:15.000Z,72.56
2023-04-27T06:38:15.005Z,72.65
2023-04-27T06:39:15.217Z,72.75
2023-04-27T06:40:15.022Z,72.46
2023-04-27T06:41:15.291Z,72.65
2023-04-27T06:42:15.026Z,72.65
2023-04-27T06:43:15.032Z,72.65
2023-04-27T06:44:57.840Z,72.46
2023-04-27T06:45:57.635Z,72.94
2023-04-27T06:46:57.587Z,72.75
2023-04-27T06:47:57.654Z,72.46
2023-04-27T06:48:57.587Z,72.46
2023-04-27T06:49:57.604Z,72.75
2023-04-27T06:50:57.604Z,72.56
2023-04-27T06:52:40.152Z,72.46
2023-04-27T06:53:40.145Z,72.56
2023-04-27T06:54:40.159Z,72.56
2023-04-27T06:55:43.028Z,72.17
2023-04-27T06:56:40.175Z,72.08
2023-04-27T06:57:40.166Z,71.80
2023-04-27T06:58:40.182Z,71.89
2023-04-27T06:59:40.192Z,71.89
2023-04-27T07:00:40.199Z,72.21
2023-04-27T07:01:40.194Z,72.02
2023-04-27T07:02:40.373Z,71.64
2023-04-27T07:03:40.408Z,71.22
2023-04-27T07:04:40.294Z,70.97
2023-04-27T07:08:46.137Z,69.54
2023-04-27T07:09:46.128Z,69.35
2023-04-27T07:10:46.134Z,68.78
2023-04-27T07:11:46.143Z,68.78
2023-04-27T07:12:46.165Z,68.40
2023-04-27T07:13:46.147Z,68.59
2023-04-27T07:14:46.210Z,68.21
2023-04-27T07:15:46.213Z,68.21
2023-04-27T07:16:46.162Z,68.21
2023-04-27T07:17:46.172Z,68.02
2023-04-27T07:18:46.176Z,68.02
2023-04-27T07:19:46.182Z,68.15
2023-04-27T07:20:46.197Z,67.68
2023-04-27T07:21:46.195Z,67.93
2023-04-27T07:22:46.188Z,67.68
2023-04-27T07:26:17.061Z,67.48
2023-04-27T07:27:17.063Z,67.39
2023-04-27T07:28:17.063Z,67.58
2023-04-27T07:30:24.658Z,66.91
2023-04-27T07:31:24.938Z,66.91
2023-04-27T07:33:37.272Z,66.78
2023-04-27T07:34:52.016Z,66.97
2023-04-27T07:35:37.293Z,66.97
2023-04-27T07:37:20.016Z,66.91
2023-04-27T07:38:19.832Z,67.20
2023-04-27T07:39:19.828Z,66.44
2023-04-27T07:40:19.850Z,66.05
2023-04-27T07:41:19.843Z,66.34
2023-04-27T07:42:19.852Z,65.73
2023-04-27T07:43:19.857Z,65.73
2023-04-27T07:44:19.860Z,66.21
2023-04-27T07:45:19.858Z,66.11
2023-04-27T07:46:19.904Z,66.02
2023-04-27T07:47:20.047Z,66.11
2023-04-27T07:48:19.917Z,66.21
2023-04-27T07:49:19.874Z,65.64
2023-04-27T07:50:19.886Z,65.20
2023-04-27T07:51:19.895Z,64.24
2023-04-27T07:52:19.895Z,63.39
2023-04-27T07:53:19.896Z,63.29
2023-04-27T07:54:19.906Z,63.10
2023-04-27T07:55:19.907Z,62.91
2023-04-27T07:56:19.919Z,62.91
2023-04-27T07:57:19.920Z,62.24
2023-04-27T07:58:19.928Z,62.56
2023-04-27T07:59:19.935Z,62.65
2023-04-27T08:00:19.941Z,62.08
2023-04-27T08:02:19.838Z,61.70
2023-04-27T08:03:12.968Z,62.08
2023-04-27T08:04:12.817Z,61.80
2023-04-27T08:05:12.750Z,61.60
2023-04-27T08:06:12.927Z,61.70
2023-04-27T08:07:12.892Z,61.60
2023-04-27T08:08:12.749Z,61.73
2023-04-27T08:09:12.761Z,60.78
2023-04-27T08:10:12.556Z,61.25
2023-04-27T08:11:12.558Z,61.66
2023-04-27T08:12:12.555Z,61.29
2023-04-27T08:13:12.548Z,59.66
2023-04-27T08:14:12.563Z,59.02
2023-04-27T08:15:12.580Z,58.45
2023-04-27T08:16:12.574Z,57.59
2023-04-27T08:17:12.582Z,57.59
2023-04-27T08:19:05.161Z,57.81
2023-04-27T08:20:05.145Z,57.36
2023-04-27T08:21:05.153Z,57.99
2023-04-27T08:22:05.152Z,56.64
2023-04-27T08:24:17.776Z,50.34
2023-04-27T08:25:17.759Z,50.37
2023-04-27T08:26:17.768Z,48.79
2023-04-27T08:28:40.400Z,45.41
2023-04-27T08:29:40.395Z,43.79
2023-04-27T08:31:32.994Z,42.83
